sensor_id;sensor_type;location;lat;lon;timestamp;temperature;humidity
15203;DHT22;7702;51.046;5.184;2023-04-01T00:01:40;9.70;99.90
15203;DHT22;7702;51.046;5.184;2023-04-01T00:04:06;9.70;99.90
15203;DHT22;7702;51.046;5.184;2023-04-01T00:06:32;9.70;99.90
15203;DHT22;7702;51.046;5.184;2023-04-01T00:08:57;9.70;99.90
15203;DHT22;7702;51.046;5.184;2023-04-01T00:11:23;9.70;99.90
15203;DHT22;7702;51.046;5.184;2023-04-01T00:13:49;9.70;99.90
15203;DHT22;7702;51.046;5.184;2023-04-01T00:16:15;9.70;99.90
15203;DHT22;7702;51.046;5.184;2023-04-01T00:18:42;9.70;99.90
15203;DHT22;7702;51.046;5.184;2023-04-01T00:21:07;9.70;99.90
15203;DHT22;7702;51.046;5.184;2023-04-01T00:23:33;9.70;99.90
15203;DHT22;7702;51.046;5.184;2023-04-01T00:26:00;9.70;99.90
15203;DHT22;7702;51.046;5.184;2023-04-01T00:28:27;9.60;99.90
15203;DHT22;7702;51.046;5.184;2023-04-01T00:30:53;9.70;99.90
15203;DHT22;7702;51.046;5.184;2023-04-01T00:33:19;9.70;99.90
15203;DHT22;7702;51.046;5.184;2023-04-01T00:35:46;9.70;99.90
15203;DHT22;7702;51.046;5.184;2023-04-01T00:38:12;9.70;99.90
15203;DHT22;7702;51.046;5.184;2023-04-01T00:40:43;9.60;99.90
15203;DHT22;7702;51.046;5.184;2023-04-01T00:43:16;9.70;99.90
15203;DHT22;7702;51.046;5.184;2023-04-01T00:45:44;9.70;99.90
15203;DHT22;7702;51.046;5.184;2023-04-01T00:50:43;9.70;99.90
15203;DHT22;7702;51.046;5.184;2023-04-01T00:53:10;9.70;99.90
15203;DHT22;7702;51.046;5.184;2023-04-01T00:55:40;9.70;99.90
15203;DHT22;7702;51.046;5.184;2023-04-01T00:58:12;9.70;99.90
15203;DHT22;7702;51.046;5.184;2023-04-01T01:00:40;9.70;99.90
15203;DHT22;7702;51.046;5.184;2023-04-01T01:03:07;9.70;99.90
15203;DHT22;7702;51.046;5.184;2023-04-01T01:08:40;9.70;99.90
15203;DHT22;7702;51.046;5.184;2023-04-01T01:11:10;9.70;99.90
15203;DHT22;7702;51.046;5.184;2023-04-01T01:13:49;9.70;99.90
15203;DHT22;7702;51.046;5.184;2023-04-01T01:16:23;9.70;99.90
15203;DHT22;7702;51.046;5.184;2023-04-01T01:24:30;9.60;99.90
15203;DHT22;7702;51.046;5.184;2023-04-01T01:27:12;9.60;99.90
15203;DHT22;7702;51.046;5.184;2023-04-01T01:30:12;9.60;99.90
15203;DHT22;7702;51.046;5.184;2023-04-01T01:35:31;9.70;99.90
15203;DHT22;7702;51.046;5.184;2023-04-01T01:38:15;9.70;99.90
15203;DHT22;7702;51.046;5.184;2023-04-01T01:40:44;9.70;99.90
15203;DHT22;7702;51.046;5.184;2023-04-01T01:43:15;9.70;99.90
15203;DHT22;7702;51.046;5.184;2023-04-01T01:45:47;9.70;99.90
15203;DHT22;7702;51.046;5.184;2023-04-01T01:48:15;9.70;99.90
15203;DHT22;7702;51.046;5.184;2023-04-01T01:50:43;9.70;99.90
15203;DHT22;7702;51.046;5.184;2023-04-01T01:53:12;9.70;99.90
15203;DHT22;7702;51.046;5.184;2023-04-01T01:55:41;9.70;99.90
15203;DHT22;7702;51.046;5.184;2023-04-01T02:00:45;9.70;99.90
15203;DHT22;7702;51.046;5.184;2023-04-01T02:03:13;9.70;99.90
15203;DHT22;7702;51.046;5.184;2023-04-01T02:05:41;9.80;99.90
15203;DHT22;7702;51.046;5.184;2023-04-01T02:08:12;9.70;99.90
15203;DHT22;7702;51.046;5.184;2023-04-01T02:10:43;9.70;99.90
15203;DHT22;7702;51.046;5.184;2023-04-01T02:13:24;9.70;99.90
15203;DHT22;7702;51.046;5.184;2023-04-01T02:15:53;9.70;99.90
15203;DHT22;7702;51.046;5.184;2023-04-01T02:18:21;9.70;99.90
15203;DHT22;7702;51.046;5.184;2023-04-01T02:20:49;9.70;99.90
15203;DHT22;7702;51.046;5.184;2023-04-01T02:23:15;9.70;99.90
15203;DHT22;7702;51.046;5.184;2023-04-01T02:25:41;9.70;99.90
15203;DHT22;7702;51.046;5.184;2023-04-01T02:28:09;9.70;99.90
15203;DHT22;7702;51.046;5.184;2023-04-01T02:30:37;9.70;99.90
15203;DHT22;7702;51.046;5.184;2023-04-01T02:33:05;9.70;99.90
15203;DHT22;7702;51.046;5.184;2023-04-01T02:35:36;9.70;99.90
15203;DHT22;7702;51.046;5.184;2023-04-01T02:38:03;9.70;99.90
15203;DHT22;7702;51.046;5.184;2023-04-01T02:40:29;9.70;99.90
15203;DHT22;7702;51.046;5.184;2023-04-01T02:42:55;9.70;99.90
15203;DHT22;7702;51.046;5.184;2023-04-01T02:45:20;9.70;99.90
15203;DHT22;7702;51.046;5.184;2023-04-01T02:47:46;9.70;99.90
15203;DHT22;7702;51.046;5.184;2023-04-01T02:50:12;9.60;99.90
15203;DHT22;7702;51.046;5.184;2023-04-01T02:52:38;9.70;99.90
15203;DHT22;7702;51.046;5.184;2023-04-01T02:55:04;9.60;99.90
15203;DHT22;7702;51.046;5.184;2023-04-01T02:57:31;9.60;99.90
15203;DHT22;7702;51.046;5.184;2023-04-01T02:59:56;9.60;99.90
15203;DHT22;7702;51.046;5.184;2023-04-01T03:02:22;9.60;99.90
15203;DHT22;7702;51.046;5.184;2023-04-01T03:04:48;9.60;99.90
15203;DHT22;7702;51.046;5.184;2023-04-01T03:07:13;9.50;99.90
15203;DHT22;7702;51.046;5.184;2023-04-01T03:09:39;9.60;99.90
15203;DHT22;7702;51.046;5.184;2023-04-01T03:12:05;9.60;99.90
15203;DHT22;7702;51.046;5.184;2023-04-01T03:14:31;9.60;99.90
15203;DHT22;7702;51.046;5.184;2023-04-01T03:16:57;9.50;99.90
15203;DHT22;7702;51.046;5.184;2023-04-01T03:19:23;9.50;99.90
15203;DHT22;7702;51.046;5.184;2023-04-01T03:21:49;9.50;99.90
15203;DHT22;7702;51.046;5.184;2023-04-01T03:24:14;9.50;99.90
15203;DHT22;7702;51.046;5.184;2023-04-01T03:26:40;9.50;99.90
15203;DHT22;7702;51.046;5.184;2023-04-01T03:29:06;9.40;99.90
15203;DHT22;7702;51.046;5.184;2023-04-01T03:31:31;9.50;99.90
15203;DHT22;7702;51.046;5.184;2023-04-01T03:33:57;9.50;99.90
15203;DHT22;7702;51.046;5.184;2023-04-01T03:36:23;9.50;99.90
15203;DHT22;7702;51.046;5.184;2023-04-01T03:38:49;9.40;99.90
15203;DHT22;7702;51.046;5.184;2023-04-01T03:41:15;9.40;99.90
15203;DHT22;7702;51.046;5.184;2023-04-01T03:43:41;9.40;99.90
15203;DHT22;7702;51.046;5.184;2023-04-01T03:46:07;9.40;99.90
15203;DHT22;7702;51.046;5.184;2023-04-01T03:48:33;9.40;99.90
15203;DHT22;7702;51.046;5.184;2023-04-01T03:50:59;9.40;99.90
15203;DHT22;7702;51.046;5.184;2023-04-01T03:53:24;9.30;99.90
15203;DHT22;7702;51.046;5.184;2023-04-01T03:55:51;9.30;99.90
15203;DHT22;7702;51.046;5.184;2023-04-01T03:58:17;9.30;99.90
15203;DHT22;7702;51.046;5.184;2023-04-01T04:00:43;9.30;99.90
15203;DHT22;7702;51.046;5.184;2023-04-01T04:03:09;9.30;99.90
15203;DHT22;7702;51.046;5.184;2023-04-01T04:05:34;9.30;99.90
15203;DHT22;7702;51.046;5.184;2023-04-01T04:08:00;9.30;99.90
15203;DHT22;7702;51.046;5.184;2023-04-01T04:10:26;9.30;99.90
15203;DHT22;7702;51.046;5.184;2023-04-01T04:12:52;9.30;99.90
15203;DHT22;7702;51.046;5.184;2023-04-01T04:15:18;9.40;99.90
15203;DHT22;7702;51.046;5.184;2023-04-01T04:17:44;9.40;99.90
15203;DHT22;7702;51.046;5.184;2023-04-01T04:20:11;9.30;99.90
15203;DHT22;7702;51.046;5.184;2023-04-01T04:22:36;9.30;99.90
15203;DHT22;7702;51.046;5.184;2023-04-01T04:25:02;9.30;99.90
15203;DHT22;7702;51.046;5.184;2023-04-01T04:27:28;9.30;99.90
15203;DHT22;7702;51.046;5.184;2023-04-01T04:29:54;9.30;99.90
15203;DHT22;7702;51.046;5.184;2023-04-01T04:32:19;9.30;99.90
15203;DHT22;7702;51.046;5.184;2023-04-01T04:34:45;9.30;99.90
15203;DHT22;7702;51.046;5.184;2023-04-01T04:37:11;9.30;99.90
15203;DHT22;7702;51.046;5.184;2023-04-01T04:39:37;9.30;99.90
15203;DHT22;7702;51.046;5.184;2023-04-01T04:42:03;9.30;99.90
15203;DHT22;7702;51.046;5.184;2023-04-01T04:44:28;9.30;99.90
15203;DHT22;7702;51.046;5.184;2023-04-01T04:46:54;9.20;99.90
15203;DHT22;7702;51.046;5.184;2023-04-01T04:49:20;9.30;99.90
15203;DHT22;7702;51.046;5.184;2023-04-01T04:51:46;9.30;99.90
15203;DHT22;7702;51.046;5.184;2023-04-01T04:54:12;9.30;99.90
15203;DHT22;7702;51.046;5.184;2023-04-01T04:56:37;9.30;99.90
15203;DHT22;7702;51.046;5.184;2023-04-01T04:59:04;9.30;99.90
15203;DHT22;7702;51.046;5.184;2023-04-01T05:01:30;9.30;99.90
15203;DHT22;7702;51.046;5.184;2023-04-01T05:03:56;9.30;99.90
15203;DHT22;7702;51.046;5.184;2023-04-01T05:06:21;9.30;99.90
15203;DHT22;7702;51.046;5.184;2023-04-01T05:08:47;9.30;99.90
15203;DHT22;7702;51.046;5.184;2023-04-01T05:11:15;9.30;99.90
15203;DHT22;7702;51.046;5.184;2023-04-01T05:13:42;9.30;99.90
15203;DHT22;7702;51.046;5.184;2023-04-01T05:16:13;9.30;99.90
15203;DHT22;7702;51.046;5.184;2023-04-01T05:18:39;9.30;99.90
15203;DHT22;7702;51.046;5.184;2023-04-01T05:21:06;9.30;99.90
15203;DHT22;7702;51.046;5.184;2023-04-01T05:23:32;9.30;99.90
15203;DHT22;7702;51.046;5.184;2023-04-01T05:25:59;9.40;99.90
15203;DHT22;7702;51.046;5.184;2023-04-01T05:28:27;9.30;99.90
15203;DHT22;7702;51.046;5.184;2023-04-01T05:30:53;9.30;99.90
15203;DHT22;7702;51.046;5.184;2023-04-01T05:33:19;9.30;99.90
15203;DHT22;7702;51.046;5.184;2023-04-01T05:35:44;9.30;99.90
15203;DHT22;7702;51.046;5.184;2023-04-01T05:38:10;9.30;99.90
15203;DHT22;7702;51.046;5.184;2023-04-01T05:40:36;9.30;99.90
15203;DHT22;7702;51.046;5.184;2023-04-01T05:43:02;9.30;99.90
15203;DHT22;7702;51.046;5.184;2023-04-01T05:45:27;9.40;99.90
15203;DHT22;7702;51.046;5.184;2023-04-01T05:47:53;9.30;99.90
15203;DHT22;7702;51.046;5.184;2023-04-01T05:50:19;9.40;99.90
15203;DHT22;7702;51.046;5.184;2023-04-01T05:52:45;9.40;99.90
15203;DHT22;7702;51.046;5.184;2023-04-01T05:55:12;9.40;99.90
15203;DHT22;7702;51.046;5.184;2023-04-01T05:57:37;9.40;99.90
15203;DHT22;7702;51.046;5.184;2023-04-01T06:00:04;9.40;99.90
15203;DHT22;7702;51.046;5.184;2023-04-01T06:02:30;9.40;99.90
15203;DHT22;7702;51.046;5.184;2023-04-01T06:05:24;9.40;99.90
15203;DHT22;7702;51.046;5.184;2023-04-01T06:07:58;9.30;99.90
15203;DHT22;7702;51.046;5.184;2023-04-01T06:10:44;9.30;99.90
15203;DHT22;7702;51.046;5.184;2023-04-01T06:22:17;9.40;99.90
15203;DHT22;7702;51.046;5.184;2023-04-01T06:25:22;9.30;99.90
15203;DHT22;7702;51.046;5.184;2023-04-01T06:27:57;9.40;99.90
15203;DHT22;7702;51.046;5.184;2023-04-01T06:30:38;9.40;99.90
15203;DHT22;7702;51.046;5.184;2023-04-01T06:42:06;9.40;99.90
15203;DHT22;7702;51.046;5.184;2023-04-01T06:45:02;9.40;99.90
15203;DHT22;7702;51.046;5.184;2023-04-01T06:50:29;9.40;99.90
15203;DHT22;7702;51.046;5.184;2023-04-01T06:56:05;9.30;99.90
15203;DHT22;7702;51.046;5.184;2023-04-01T07:02:00;9.40;99.90
15203;DHT22;7702;51.046;5.184;2023-04-01T07:04:33;9.30;99.90
15203;DHT22;7702;51.046;5.184;2023-04-01T07:07:03;9.40;99.90
15203;DHT22;7702;51.046;5.184;2023-04-01T07:09:41;9.30;99.90
15203;DHT22;7702;51.046;5.184;2023-04-01T07:12:40;9.30;99.90
15203;DHT22;7702;51.046;5.184;2023-04-01T07:15:49;9.40;99.90
15203;DHT22;7702;51.046;5.184;2023-04-01T07:18:23;9.40;99.90
15203;DHT22;7702;51.046;5.184;2023-04-01T07:20:51;9.40;99.90
15203;DHT22;7702;51.046;5.184;2023-04-01T07:23:32;9.40;99.90
15203;DHT22;7702;51.046;5.184;2023-04-01T07:26:16;9.40;99.90
15203;DHT22;7702;51.046;5.184;2023-04-01T07:28:42;9.50;99.90
15203;DHT22;7702;51.046;5.184;2023-04-01T07:37:14;9.50;99.90
15203;DHT22;7702;51.046;5.184;2023-04-01T07:56:08;9.50;99.90
15203;DHT22;7702;51.046;5.184;2023-04-01T07:58:38;9.70;99.90
15203;DHT22;7702;51.046;5.184;2023-04-01T08:01:39;9.60;99.90
15203;DHT22;7702;51.046;5.184;2023-04-01T08:07:05;9.50;99.90
15203;DHT22;7702;51.046;5.184;2023-04-01T08:12:34;9.60;99.90
15203;DHT22;7702;51.046;5.184;2023-04-01T08:18:08;9.50;99.90
15203;DHT22;7702;51.046;5.184;2023-04-01T08:23:33;9.50;99.90
15203;DHT22;7702;51.046;5.184;2023-04-01T08:31:16;9.60;99.90
15203;DHT22;7702;51.046;5.184;2023-04-01T08:33:44;9.60;99.90
15203;DHT22;7702;51.046;5.184;2023-04-01T08:36:15;9.60;99.90
15203;DHT22;7702;51.046;5.184;2023-04-01T08:38:47;9.60;99.90
15203;DHT22;7702;51.046;5.184;2023-04-01T08:47:23;9.70;99.90
15203;DHT22;7702;51.046;5.184;2023-04-01T08:52:41;9.70;99.90
15203;DHT22;7702;51.046;5.184;2023-04-01T09:00:57;9.80;99.90
15203;DHT22;7702;51.046;5.184;2023-04-01T09:11:23;10.00;99.90
15203;DHT22;7702;51.046;5.184;2023-04-01T09:15:13;10.10;99.90
15203;DHT22;7702;51.046;5.184;2023-04-01T09:28:01;10.10;99.90
15203;DHT22;7702;51.046;5.184;2023-04-01T09:36:37;10.20;99.90
15203;DHT22;7702;51.046;5.184;2023-04-01T09:53:29;10.20;99.90
15203;DHT22;7702;51.046;5.184;2023-04-01T09:59:01;10.20;99.90
15203;DHT22;7702;51.046;5.184;2023-04-01T10:10:17;10.30;99.90
15203;DHT22;7702;51.046;5.184;2023-04-01T10:12:59;10.30;99.90
15203;DHT22;7702;51.046;5.184;2023-04-01T10:16:02;10.40;99.90
15203;DHT22;7702;51.046;5.184;2023-04-01T10:21:27;10.30;99.90
15203;DHT22;7702;51.046;5.184;2023-04-01T10:27:21;10.40;99.90
15203;DHT22;7702;51.046;5.184;2023-04-01T10:44:42;10.30;99.90
15203;DHT22;7702;51.046;5.184;2023-04-01T10:50:31;10.30;99.90
15203;DHT22;7702;51.046;5.184;2023-04-01T11:07:17;10.60;99.90
15203;DHT22;7702;51.046;5.184;2023-04-01T11:27:41;11.00;99.90
15203;DHT22;7702;51.046;5.184;2023-04-01T11:30:38;11.00;99.90
15203;DHT22;7702;51.046;5.184;2023-04-01T11:44:26;10.80;99.90
15203;DHT22;7702;51.046;5.184;2023-04-01T12:00:35;10.40;99.90
15203;DHT22;7702;51.046;5.184;2023-04-01T12:20:19;10.70;99.90
15203;DHT22;7702;51.046;5.184;2023-04-01T12:22:59;10.70;99.90
15203;DHT22;7702;51.046;5.184;2023-04-01T12:28:29;10.40;99.90
15203;DHT22;7702;51.046;5.184;2023-04-01T12:33:59;10.40;99.90
15203;DHT22;7702;51.046;5.184;2023-04-01T12:36:53;10.30;99.90
15203;DHT22;7702;51.046;5.184;2023-04-01T12:42:51;10.40;99.90
15203;DHT22;7702;51.046;5.184;2023-04-01T12:45:49;10.30;99.90
15203;DHT22;7702;51.046;5.184;2023-04-01T13:05:14;10.40;99.90
15203;DHT22;7702;51.046;5.184;2023-04-01T13:08:14;10.50;99.90
15203;DHT22;7702;51.046;5.184;2023-04-01T13:19:08;10.40;99.90
15203;DHT22;7702;51.046;5.184;2023-04-01T13:22:07;10.50;99.90
15203;DHT22;7702;51.046;5.184;2023-04-01T13:27:39;10.60;99.90
15203;DHT22;7702;51.046;5.184;2023-04-01T13:39:19;10.60;99.90
15203;DHT22;7702;51.046;5.184;2023-04-01T13:50:12;10.50;99.90
15203;DHT22;7702;51.046;5.184;2023-04-01T13:58:47;10.60;99.90
15203;DHT22;7702;51.046;5.184;2023-04-01T14:01:22;10.60;99.90
15203;DHT22;7702;51.046;5.184;2023-04-01T14:07:04;10.50;99.90
15203;DHT22;7702;51.046;5.184;2023-04-01T14:09:50;10.50;99.90
15203;DHT22;7702;51.046;5.184;2023-04-01T14:15:46;10.50;99.90
15203;DHT22;7702;51.046;5.184;2023-04-01T14:47:22;10.40;99.90
15203;DHT22;7702;51.046;5.184;2023-04-01T14:49:53;10.50;99.90
15203;DHT22;7702;51.046;5.184;2023-04-01T14:52:31;10.40;99.90
15203;DHT22;7702;51.046;5.184;2023-04-01T14:55:00;10.40;99.90
15203;DHT22;7702;51.046;5.184;2023-04-01T14:57:30;10.40;99.90
15203;DHT22;7702;51.046;5.184;2023-04-01T15:00:14;10.40;99.90
15203;DHT22;7702;51.046;5.184;2023-04-01T15:11:03;10.30;99.90
15203;DHT22;7702;51.046;5.184;2023-04-01T15:16:37;10.40;99.90
15203;DHT22;7702;51.046;5.184;2023-04-01T15:24:34;10.50;99.90
15203;DHT22;7702;51.046;5.184;2023-04-01T15:35:10;10.80;99.90
15203;DHT22;7702;51.046;5.184;2023-04-01T15:45:41;10.70;99.90
15203;DHT22;7702;51.046;5.184;2023-04-01T15:51:07;10.60;99.90
15203;DHT22;7702;51.046;5.184;2023-04-01T15:59:20;10.60;99.90
15203;DHT22;7702;51.046;5.184;2023-04-01T16:12:35;10.50;99.90
15203;DHT22;7702;51.046;5.184;2023-04-01T16:20:57;10.10;99.90
15203;DHT22;7702;51.046;5.184;2023-04-01T16:23:51;10.20;99.90
15203;DHT22;7702;51.046;5.184;2023-04-01T16:26:42;10.00;99.90
15203;DHT22;7702;51.046;5.184;2023-04-01T16:32:34;10.00;99.90
15203;DHT22;7702;51.046;5.184;2023-04-01T16:35:23;9.90;99.90
15203;DHT22;7702;51.046;5.184;2023-04-01T16:41:11;9.90;99.90
15203;DHT22;7702;51.046;5.184;2023-04-01T16:43:50;9.90;99.90
15203;DHT22;7702;51.046;5.184;2023-04-01T16:46:33;10.00;99.90
15203;DHT22;7702;51.046;5.184;2023-04-01T16:57:30;9.80;99.90
15203;DHT22;7702;51.046;5.184;2023-04-01T17:11:24;9.60;99.90
15203;DHT22;7702;51.046;5.184;2023-04-01T17:14:20;9.50;99.90
15203;DHT22;7702;51.046;5.184;2023-04-01T17:25:38;9.50;99.90
15203;DHT22;7702;51.046;5.184;2023-04-01T17:36:37;9.50;99.90
15203;DHT22;7702;51.046;5.184;2023-04-01T17:45:09;9.40;99.90
15203;DHT22;7702;51.046;5.184;2023-04-01T17:55:43;9.40;99.90
15203;DHT22;7702;51.046;5.184;2023-04-01T17:58:20;9.40;99.90
15203;DHT22;7702;51.046;5.184;2023-04-01T18:06:41;9.40;99.90
15203;DHT22;7702;51.046;5.184;2023-04-01T18:09:31;9.40;99.90
15203;DHT22;7702;51.046;5.184;2023-04-01T18:13:02;9.40;99.90
15203;DHT22;7702;51.046;5.184;2023-04-01T18:15:28;9.40;99.90
15203;DHT22;7702;51.046;5.184;2023-04-01T18:24:11;9.30;99.90
15203;DHT22;7702;51.046;5.184;2023-04-01T18:26:32;9.30;99.90
15203;DHT22;7702;51.046;5.184;2023-04-01T18:37:53;9.30;99.90
15203;DHT22;7702;51.046;5.184;2023-04-01T18:40:30;9.30;99.90
15203;DHT22;7702;51.046;5.184;2023-04-01T18:43:47;9.30;99.90
15203;DHT22;7702;51.046;5.184;2023-04-01T18:46:00;9.30;99.90
15203;DHT22;7702;51.046;5.184;2023-04-01T18:48:54;9.30;99.90
15203;DHT22;7702;51.046;5.184;2023-04-01T18:51:54;9.30;99.90
15203;DHT22;7702;51.046;5.184;2023-04-01T18:57:14;9.30;99.90
15203;DHT22;7702;51.046;5.184;2023-04-01T18:59:55;9.30;99.90
15203;DHT22;7702;51.046;5.184;2023-04-01T19:07:52;9.30;99.90
15203;DHT22;7702;51.046;5.184;2023-04-01T19:10:35;9.30;99.90
15203;DHT22;7702;51.046;5.184;2023-04-01T19:15:59;9.40;99.90
15203;DHT22;7702;51.046;5.184;2023-04-01T19:21:35;9.30;99.90
15203;DHT22;7702;51.046;5.184;2023-04-01T19:34:45;9.30;99.90
15203;DHT22;7702;51.046;5.184;2023-04-01T19:37:25;9.40;99.90
15203;DHT22;7702;51.046;5.184;2023-04-01T19:56:12;9.30;99.90
15203;DHT22;7702;51.046;5.184;2023-04-01T20:04:35;9.30;99.90
15203;DHT22;7702;51.046;5.184;2023-04-01T20:07:12;9.30;99.90
15203;DHT22;7702;51.046;5.184;2023-04-01T20:12:57;9.30;99.90
15203;DHT22;7702;51.046;5.184;2023-04-01T20:15:41;9.40;99.90
15203;DHT22;7702;51.046;5.184;2023-04-01T20:21:50;9.40;99.90
15203;DHT22;7702;51.046;5.184;2023-04-01T20:24:23;9.50;99.90
15203;DHT22;7702;51.046;5.184;2023-04-01T20:27:02;9.60;99.90
15203;DHT22;7702;51.046;5.184;2023-04-01T20:29:39;9.60;99.90
15203;DHT22;7702;51.046;5.184;2023-04-01T20:32:57;9.70;99.90
15203;DHT22;7702;51.046;5.184;2023-04-01T20:40:53;9.80;99.90
15203;DHT22;7702;51.046;5.184;2023-04-01T20:43:42;9.90;99.90
15203;DHT22;7702;51.046;5.184;2023-04-01T20:46:22;9.90;99.90
15203;DHT22;7702;51.046;5.184;2023-04-01T20:48:52;10.00;99.90
15203;DHT22;7702;51.046;5.184;2023-04-01T20:51:29;10.00;99.90
15203;DHT22;7702;51.046;5.184;2023-04-01T21:34:43;9.70;99.90
15203;DHT22;7702;51.046;5.184;2023-04-01T21:40:18;9.60;99.90
15203;DHT22;7702;51.046;5.184;2023-04-01T21:49:15;9.50;99.90
15203;DHT22;7702;51.046;5.184;2023-04-01T22:00:19;9.50;99.90
15203;DHT22;7702;51.046;5.184;2023-04-01T22:05:36;9.40;99.90
15203;DHT22;7702;51.046;5.184;2023-04-01T22:10:53;9.40;99.90
15203;DHT22;7702;51.046;5.184;2023-04-01T22:19:15;9.30;99.90
15203;DHT22;7702;51.046;5.184;2023-04-01T22:22:27;9.30;99.90
15203;DHT22;7702;51.046;5.184;2023-04-01T22:25:15;9.30;99.90
15203;DHT22;7702;51.046;5.184;2023-04-01T22:27:48;9.20;99.90
15203;DHT22;7702;51.046;5.184;2023-04-01T22:30:24;9.20;99.90
15203;DHT22;7702;51.046;5.184;2023-04-01T22:33:06;9.10;99.90
15203;DHT22;7702;51.046;5.184;2023-04-01T22:43:43;8.90;99.90
15203;DHT22;7702;51.046;5.184;2023-04-01T22:49:01;8.90;99.90
15203;DHT22;7702;51.046;5.184;2023-04-01T22:57:13;8.70;99.90
15203;DHT22;7702;51.046;5.184;2023-04-01T22:59:48;8.80;99.90
15203;DHT22;7702;51.046;5.184;2023-04-01T23:02:25;8.80;99.90
15203;DHT22;7702;51.046;5.184;2023-04-01T23:04:57;8.80;99.90
15203;DHT22;7702;51.046;5.184;2023-04-01T23:10:01;8.80;99.90
15203;DHT22;7702;51.046;5.184;2023-04-01T23:12:30;8.80;99.90
15203;DHT22;7702;51.046;5.184;2023-04-01T23:15:01;8.80;99.90
15203;DHT22;7702;51.046;5.184;2023-04-01T23:22:54;8.60;99.90
15203;DHT22;7702;51.046;5.184;2023-04-01T23:36:12;8.50;99.90
15203;DHT22;7702;51.046;5.184;2023-04-01T23:38:41;8.40;99.90
15203;DHT22;7702;51.046;5.184;2023-04-01T23:41:16;8.40;99.90
15203;DHT22;7702;51.046;5.184;2023-04-01T23:43:43;8.30;99.90
15203;DHT22;7702;51.046;5.184;2023-04-01T23:46:12;8.30;99.90
15203;DHT22;7702;51.046;5.184;2023-04-01T23:48:44;8.30;99.90
15203;DHT22;7702;51.046;5.184;2023-04-01T23:51:22;8.30;99.90
15203;DHT22;7702;51.046;5.184;2023-04-01T23:54:02;8.30;99.90
15203;DHT22;7702;51.046;5.184;2023-04-01T23:56:39;8.30;99.90
15203;DHT22;7702;51.046;5.184;2023-04-01T23:59:16;8.30;99.90
